sensor_id;sensor_type;location;lat;lon;timestamp;P1;durP1;ratioP1;P2;durP2;ratioP2
23119;SDS011;11729;50.836;4.330;2024-03-23T00:53:58;23.45;;;9.27;;
23119;SDS011;11729;50.836;4.330;2024-03-23T00:56:23;18.67;;;9.38;;
23119;SDS011;11729;50.836;4.330;2024-03-23T00:58:49;24.02;;;10.82;;
23119;SDS011;11729;50.836;4.330;2024-03-23T01:01:15;23.77;;;9.93;;
23119;SDS011;11729;50.836;4.330;2024-03-23T01:03:41;19.85;;;10.00;;
23119;SDS011;11729;50.836;4.330;2024-03-23T01:06:07;22.02;;;9.95;;
23119;SDS011;11729;50.836;4.330;2024-03-23T01:08:34;19.58;;;10.30;;
23119;SDS011;11729;50.836;4.330;2024-03-23T01:11:00;21.95;;;10.18;;
23119;SDS011;11729;50.836;4.330;2024-03-23T01:13:27;22.15;;;9.98;;
23119;SDS011;11729;50.836;4.330;2024-03-23T01:15:53;16.27;;;9.75;;
23119;SDS011;11729;50.836;4.330;2024-03-23T01:18:20;20.90;;;10.13;;
23119;SDS011;11729;50.836;4.330;2024-03-23T01:20:48;19.80;;;10.77;;
23119;SDS011;11729;50.836;4.330;2024-03-23T01:23:14;26.33;;;10.15;;
23119;SDS011;11729;50.836;4.330;2024-03-23T01:25:40;24.42;;;9.93;;
23119;SDS011;11729;50.836;4.330;2024-03-23T01:28:06;21.92;;;11.25;;
23119;SDS011;11729;50.836;4.330;2024-03-23T01:30:33;22.65;;;11.15;;
23119;SDS011;11729;50.836;4.330;2024-03-23T01:32:59;25.60;;;11.23;;
23119;SDS011;11729;50.836;4.330;2024-03-23T01:35:24;28.40;;;11.65;;
23119;SDS011;11729;50.836;4.330;2024-03-23T01:37:51;22.50;;;12.07;;
23119;SDS011;11729;50.836;4.330;2024-03-23T01:40:17;26.45;;;11.40;;
23119;SDS011;11729;50.836;4.330;2024-03-23T01:42:43;20.85;;;11.77;;
23119;SDS011;11729;50.836;4.330;2024-03-23T01:45:20;27.85;;;11.68;;
23119;SDS011;11729;50.836;4.330;2024-03-23T01:47:46;19.42;;;12.25;;
23119;SDS011;11729;50.836;4.330;2024-03-23T01:50:13;22.02;;;12.63;;
23119;SDS011;11729;50.836;4.330;2024-03-23T01:52:39;24.15;;;12.68;;
23119;SDS011;11729;50.836;4.330;2024-03-23T01:55:04;35.45;;;13.23;;
23119;SDS011;11729;50.836;4.330;2024-03-23T01:57:30;28.98;;;12.95;;
23119;SDS011;11729;50.836;4.330;2024-03-23T01:59:56;24.95;;;12.65;;
23119;SDS011;11729;50.836;4.330;2024-03-23T02:02:22;24.10;;;13.40;;
23119;SDS011;11729;50.836;4.330;2024-03-23T02:04:47;18.92;;;12.15;;
23119;SDS011;11729;50.836;4.330;2024-03-23T02:07:13;26.20;;;13.30;;
23119;SDS011;11729;50.836;4.330;2024-03-23T02:09:39;23.98;;;12.82;;
23119;SDS011;11729;50.836;4.330;2024-03-23T02:12:04;30.00;;;13.63;;
23119;SDS011;11729;50.836;4.330;2024-03-23T02:14:31;30.70;;;13.18;;
23119;SDS011;11729;50.836;4.330;2024-03-23T02:16:57;27.67;;;13.50;;
23119;SDS011;11729;50.836;4.330;2024-03-23T02:19:23;28.42;;;13.68;;
23119;SDS011;11729;50.836;4.330;2024-03-23T02:21:49;26.77;;;13.05;;
23119;SDS011;11729;50.836;4.330;2024-03-23T02:24:15;30.65;;;14.07;;
23119;SDS011;11729;50.836;4.330;2024-03-23T02:26:40;30.15;;;14.38;;
23119;SDS011;11729;50.836;4.330;2024-03-23T02:29:06;28.67;;;14.68;;
23119;SDS011;11729;50.836;4.330;2024-03-23T02:31:32;25.90;;;15.40;;
23119;SDS011;11729;50.836;4.330;2024-03-23T02:33:57;38.85;;;15.75;;
23119;SDS011;11729;50.836;4.330;2024-03-23T02:36:24;42.47;;;16.83;;
23119;SDS011;11729;50.836;4.330;2024-03-23T02:38:50;34.83;;;16.10;;
23119;SDS011;11729;50.836;4.330;2024-03-23T02:41:15;32.65;;;16.52;;
23119;SDS011;11729;50.836;4.330;2024-03-23T02:43:48;31.05;;;17.58;;
23119;SDS011;11729;50.836;4.330;2024-03-23T02:46:17;41.53;;;18.23;;
23119;SDS011;11729;50.836;4.330;2024-03-23T02:48:43;41.70;;;18.85;;
23119;SDS011;11729;50.836;4.330;2024-03-23T02:51:08;44.88;;;19.70;;
23119;SDS011;11729;50.836;4.330;2024-03-23T02:53:34;45.70;;;19.25;;
23119;SDS011;11729;50.836;4.330;2024-03-23T02:56:01;41.60;;;19.60;;
23119;SDS011;11729;50.836;4.330;2024-03-23T02:58:27;46.78;;;19.83;;
23119;SDS011;11729;50.836;4.330;2024-03-23T03:00:53;51.65;;;19.70;;
23119;SDS011;11729;50.836;4.330;2024-03-23T03:03:18;35.50;;;19.58;;
23119;SDS011;11729;50.836;4.330;2024-03-23T03:05:44;43.05;;;20.17;;
23119;SDS011;11729;50.836;4.330;2024-03-23T03:08:10;45.80;;;20.67;;
23119;SDS011;11729;50.836;4.330;2024-03-23T03:10:35;41.72;;;20.02;;
23119;SDS011;11729;50.836;4.330;2024-03-23T03:13:01;56.03;;;20.73;;
23119;SDS011;11729;50.836;4.330;2024-03-23T03:15:27;44.25;;;20.42;;
23119;SDS011;11729;50.836;4.330;2024-03-23T03:17:53;49.00;;;20.38;;
23119;SDS011;11729;50.836;4.330;2024-03-23T03:20:20;46.17;;;19.85;;
23119;SDS011;11729;50.836;4.330;2024-03-23T03:22:50;47.47;;;20.67;;
23119;SDS011;11729;50.836;4.330;2024-03-23T03:25:18;44.60;;;20.30;;
23119;SDS011;11729;50.836;4.330;2024-03-23T03:27:43;51.08;;;21.40;;
23119;SDS011;11729;50.836;4.330;2024-03-23T03:30:09;44.85;;;20.42;;
23119;SDS011;11729;50.836;4.330;2024-03-23T03:32:36;44.83;;;20.38;;
23119;SDS011;11729;50.836;4.330;2024-03-23T03:35:02;47.15;;;21.00;;
23119;SDS011;11729;50.836;4.330;2024-03-23T03:37:28;36.58;;;21.73;;
23119;SDS011;11729;50.836;4.330;2024-03-23T03:39:53;46.47;;;22.23;;
23119;SDS011;11729;50.836;4.330;2024-03-23T03:42:19;47.40;;;21.70;;
23119;SDS011;11729;50.836;4.330;2024-03-23T03:44:44;44.53;;;22.27;;
23119;SDS011;11729;50.836;4.330;2024-03-23T03:47:10;48.55;;;24.10;;
23119;SDS011;11729;50.836;4.330;2024-03-23T03:49:36;42.85;;;22.80;;
23119;SDS011;11729;50.836;4.330;2024-03-23T03:52:01;44.30;;;22.85;;
23119;SDS011;11729;50.836;4.330;2024-03-23T03:54:27;44.05;;;22.83;;
23119;SDS011;11729;50.836;4.330;2024-03-23T03:56:53;39.42;;;22.23;;
23119;SDS011;11729;50.836;4.330;2024-03-23T03:59:19;41.42;;;22.10;;
23119;SDS011;11729;50.836;4.330;2024-03-23T04:01:45;45.60;;;22.45;;
23119;SDS011;11729;50.836;4.330;2024-03-23T04:04:11;44.03;;;22.92;;
23119;SDS011;11729;50.836;4.330;2024-03-23T04:06:37;51.33;;;23.15;;
23119;SDS011;11729;50.836;4.330;2024-03-23T04:09:02;46.13;;;22.77;;
23119;SDS011;11729;50.836;4.330;2024-03-23T04:11:28;45.47;;;23.13;;
23119;SDS011;11729;50.836;4.330;2024-03-23T04:13:53;42.33;;;21.35;;
23119;SDS011;11729;50.836;4.330;2024-03-23T04:16:28;36.10;;;20.38;;
23119;SDS011;11729;50.836;4.330;2024-03-23T04:18:58;40.33;;;21.20;;
23119;SDS011;11729;50.836;4.330;2024-03-23T04:21:24;36.22;;;19.23;;
23119;SDS011;11729;50.836;4.330;2024-03-23T04:23:50;38.63;;;20.20;;
23119;SDS011;11729;50.836;4.330;2024-03-23T04:26:15;40.65;;;20.15;;
23119;SDS011;11729;50.836;4.330;2024-03-23T04:28:41;43.47;;;19.15;;
23119;SDS011;11729;50.836;4.330;2024-03-23T04:31:08;34.95;;;18.58;;
23119;SDS011;11729;50.836;4.330;2024-03-23T04:33:35;33.47;;;18.45;;
23119;SDS011;11729;50.836;4.330;2024-03-23T04:36:01;36.63;;;17.85;;
23119;SDS011;11729;50.836;4.330;2024-03-23T04:38:27;42.42;;;17.02;;
23119;SDS011;11729;50.836;4.330;2024-03-23T04:40:57;34.08;;;17.40;;
23119;SDS011;11729;50.836;4.330;2024-03-23T04:43:23;37.10;;;18.08;;
23119;SDS011;11729;50.836;4.330;2024-03-23T04:45:50;41.05;;;16.73;;
23119;SDS011;11729;50.836;4.330;2024-03-23T04:48:15;33.47;;;16.23;;
23119;SDS011;11729;50.836;4.330;2024-03-23T04:50:41;24.80;;;15.43;;
23119;SDS011;11729;50.836;4.330;2024-03-23T04:53:07;30.65;;;15.95;;
23119;SDS011;11729;50.836;4.330;2024-03-23T04:55:32;36.45;;;16.33;;
23119;SDS011;11729;50.836;4.330;2024-03-23T04:57:58;28.50;;;16.05;;
23119;SDS011;11729;50.836;4.330;2024-03-23T05:00:24;39.30;;;16.50;;
23119;SDS011;11729;50.836;4.330;2024-03-23T05:02:51;37.92;;;15.95;;
23119;SDS011;11729;50.836;4.330;2024-03-23T05:05:18;33.50;;;16.08;;
23119;SDS011;11729;50.836;4.330;2024-03-23T05:07:43;32.90;;;16.05;;
23119;SDS011;11729;50.836;4.330;2024-03-23T05:10:09;32.30;;;16.02;;
23119;SDS011;11729;50.836;4.330;2024-03-23T05:12:36;29.05;;;16.38;;
23119;SDS011;11729;50.836;4.330;2024-03-23T05:15:03;32.75;;;16.50;;
23119;SDS011;11729;50.836;4.330;2024-03-23T05:17:36;30.27;;;16.13;;
23119;SDS011;11729;50.836;4.330;2024-03-23T05:20:03;31.13;;;14.20;;
23119;SDS011;11729;50.836;4.330;2024-03-23T05:22:29;29.45;;;14.25;;
23119;SDS011;11729;50.836;4.330;2024-03-23T05:24:56;28.73;;;15.63;;
23119;SDS011;11729;50.836;4.330;2024-03-23T05:27:21;28.83;;;13.98;;
23119;SDS011;11729;50.836;4.330;2024-03-23T05:29:48;31.38;;;14.82;;
23119;SDS011;11729;50.836;4.330;2024-03-23T05:32:14;27.48;;;13.82;;
23119;SDS011;11729;50.836;4.330;2024-03-23T05:34:39;23.13;;;13.68;;
23119;SDS011;11729;50.836;4.330;2024-03-23T05:37:05;27.55;;;13.38;;
23119;SDS011;11729;50.836;4.330;2024-03-23T05:39:31;25.60;;;12.93;;
23119;SDS011;11729;50.836;4.330;2024-03-23T05:41:56;31.52;;;13.05;;
23119;SDS011;11729;50.836;4.330;2024-03-23T05:44:22;27.02;;;11.60;;
23119;SDS011;11729;50.836;4.330;2024-03-23T05:46:48;26.95;;;11.65;;
23119;SDS011;11729;50.836;4.330;2024-03-23T05:49:15;24.55;;;11.55;;
23119;SDS011;11729;50.836;4.330;2024-03-23T05:51:42;26.13;;;10.65;;
23119;SDS011;11729;50.836;4.330;2024-03-23T05:54:07;23.00;;;10.52;;
23119;SDS011;11729;50.836;4.330;2024-03-23T05:56:33;26.33;;;10.05;;
23119;SDS011;11729;50.836;4.330;2024-03-23T05:58:59;20.75;;;9.85;;
23119;SDS011;11729;50.836;4.330;2024-03-23T06:01:24;18.08;;;9.35;;
23119;SDS011;11729;50.836;4.330;2024-03-23T06:03:53;22.10;;;8.75;;
23119;SDS011;11729;50.836;4.330;2024-03-23T06:06:19;25.48;;;8.82;;
23119;SDS011;11729;50.836;4.330;2024-03-23T06:08:45;19.83;;;8.82;;
23119;SDS011;11729;50.836;4.330;2024-03-23T06:11:10;22.35;;;8.48;;
23119;SDS011;11729;50.836;4.330;2024-03-23T06:13:36;21.30;;;8.65;;
23119;SDS011;11729;50.836;4.330;2024-03-23T06:16:02;21.52;;;7.80;;
23119;SDS011;11729;50.836;4.330;2024-03-23T06:18:27;22.10;;;8.32;;
23119;SDS011;11729;50.836;4.330;2024-03-23T06:20:53;18.90;;;8.25;;
23119;SDS011;11729;50.836;4.330;2024-03-23T06:23:19;27.20;;;9.40;;
23119;SDS011;11729;50.836;4.330;2024-03-23T06:25:45;17.15;;;7.90;;
23119;SDS011;11729;50.836;4.330;2024-03-23T06:28:13;21.90;;;8.38;;
23119;SDS011;11729;50.836;4.330;2024-03-23T06:30:39;17.45;;;7.78;;
23119;SDS011;11729;50.836;4.330;2024-03-23T06:33:05;20.05;;;7.55;;
23119;SDS011;11729;50.836;4.330;2024-03-23T06:35:33;16.13;;;7.72;;
23119;SDS011;11729;50.836;4.330;2024-03-23T06:37:59;18.67;;;7.60;;
23119;SDS011;11729;50.836;4.330;2024-03-23T06:40:25;18.17;;;7.82;;
23119;SDS011;11729;50.836;4.330;2024-03-23T06:42:50;17.60;;;7.53;;
23119;SDS011;11729;50.836;4.330;2024-03-23T06:45:17;18.90;;;8.40;;
23119;SDS011;11729;50.836;4.330;2024-03-23T06:47:48;13.70;;;8.02;;
23119;SDS011;11729;50.836;4.330;2024-03-23T06:50:14;20.73;;;8.30;;
23119;SDS011;11729;50.836;4.330;2024-03-23T06:52:40;17.75;;;7.63;;
23119;SDS011;11729;50.836;4.330;2024-03-23T06:55:05;18.17;;;7.88;;
23119;SDS011;11729;50.836;4.330;2024-03-23T06:57:31;22.00;;;8.75;;
23119;SDS011;11729;50.836;4.330;2024-03-23T06:59:57;12.18;;;7.75;;
23119;SDS011;11729;50.836;4.330;2024-03-23T07:02:24;20.88;;;8.57;;
23119;SDS011;11729;50.836;4.330;2024-03-23T07:04:50;20.75;;;8.73;;
23119;SDS011;11729;50.836;4.330;2024-03-23T07:07:16;18.05;;;7.40;;
23119;SDS011;11729;50.836;4.330;2024-03-23T07:09:47;15.80;;;7.78;;
23119;SDS011;11729;50.836;4.330;2024-03-23T07:12:13;17.60;;;7.63;;
23119;SDS011;11729;50.836;4.330;2024-03-23T07:14:38;15.00;;;7.07;;
23119;SDS011;11729;50.836;4.330;2024-03-23T07:17:04;12.57;;;7.13;;
23119;SDS011;11729;50.836;4.330;2024-03-23T07:19:30;13.55;;;6.97;;
23119;SDS011;11729;50.836;4.330;2024-03-23T07:21:55;21.23;;;7.90;;
23119;SDS011;11729;50.836;4.330;2024-03-23T07:24:21;18.33;;;6.97;;
23119;SDS011;11729;50.836;4.330;2024-03-23T07:26:48;15.20;;;7.70;;
23119;SDS011;11729;50.836;4.330;2024-03-23T07:29:13;29.30;;;8.40;;
23119;SDS011;11729;50.836;4.330;2024-03-23T07:31:39;15.32;;;8.27;;
23119;SDS011;11729;50.836;4.330;2024-03-23T07:34:08;12.90;;;7.43;;
23119;SDS011;11729;50.836;4.330;2024-03-23T07:36:33;14.90;;;6.93;;
23119;SDS011;11729;50.836;4.330;2024-03-23T07:39:00;16.67;;;7.68;;
23119;SDS011;11729;50.836;4.330;2024-03-23T07:41:26;21.83;;;7.57;;
23119;SDS011;11729;50.836;4.330;2024-03-23T07:43:53;14.30;;;6.80;;
23119;SDS011;11729;50.836;4.330;2024-03-23T07:46:20;18.00;;;6.60;;
23119;SDS011;11729;50.836;4.330;2024-03-23T07:48:46;16.23;;;6.78;;
23119;SDS011;11729;50.836;4.330;2024-03-23T07:51:20;14.98;;;6.43;;
23119;SDS011;11729;50.836;4.330;2024-03-23T07:53:46;17.10;;;6.55;;
23119;SDS011;11729;50.836;4.330;2024-03-23T07:56:13;20.30;;;6.43;;
23119;SDS011;11729;50.836;4.330;2024-03-23T07:58:40;18.58;;;6.25;;
23119;SDS011;11729;50.836;4.330;2024-03-23T08:01:10;13.90;;;6.45;;
23119;SDS011;11729;50.836;4.330;2024-03-23T08:03:41;20.52;;;6.97;;
23119;SDS011;11729;50.836;4.330;2024-03-23T08:06:12;15.07;;;6.50;;
23119;SDS011;11729;50.836;4.330;2024-03-23T08:08:39;14.73;;;7.00;;
23119;SDS011;11729;50.836;4.330;2024-03-23T08:11:05;17.75;;;8.35;;
23119;SDS011;11729;50.836;4.330;2024-03-23T08:13:31;10.75;;;6.45;;
23119;SDS011;11729;50.836;4.330;2024-03-23T08:15:58;15.90;;;6.43;;
23119;SDS011;11729;50.836;4.330;2024-03-23T08:18:24;17.55;;;6.50;;
23119;SDS011;11729;50.836;4.330;2024-03-23T08:20:57;18.10;;;7.03;;
23119;SDS011;11729;50.836;4.330;2024-03-23T08:23:33;16.05;;;6.50;;
23119;SDS011;11729;50.836;4.330;2024-03-23T08:26:01;15.05;;;7.20;;
23119;SDS011;11729;50.836;4.330;2024-03-23T08:28:28;13.60;;;6.35;;
23119;SDS011;11729;50.836;4.330;2024-03-23T08:30:54;19.55;;;6.68;;
23119;SDS011;11729;50.836;4.330;2024-03-23T08:33:21;15.73;;;6.78;;
23119;SDS011;11729;50.836;4.330;2024-03-23T08:35:53;19.33;;;6.53;;
23119;SDS011;11729;50.836;4.330;2024-03-23T08:38:24;13.05;;;6.40;;
23119;SDS011;11729;50.836;4.330;2024-03-23T08:41:00;18.10;;;7.07;;
23119;SDS011;11729;50.836;4.330;2024-03-23T08:43:32;18.83;;;6.40;;
23119;SDS011;11729;50.836;4.330;2024-03-23T08:46:06;10.82;;;6.07;;
23119;SDS011;11729;50.836;4.330;2024-03-23T08:48:38;18.42;;;6.70;;
23119;SDS011;11729;50.836;4.330;2024-03-23T08:51:05;14.30;;;6.25;;
23119;SDS011;11729;50.836;4.330;2024-03-23T08:53:32;14.35;;;6.30;;
23119;SDS011;11729;50.836;4.330;2024-03-23T08:55:59;12.48;;;5.97;;
23119;SDS011;11729;50.836;4.330;2024-03-23T08:58:26;18.65;;;6.40;;
23119;SDS011;11729;50.836;4.330;2024-03-23T09:00:54;11.52;;;5.85;;
23119;SDS011;11729;50.836;4.330;2024-03-23T09:03:22;12.48;;;6.18;;
23119;SDS011;11729;50.836;4.330;2024-03-23T09:05:48;15.77;;;5.90;;
23119;SDS011;11729;50.836;4.330;2024-03-23T09:08:14;12.70;;;5.82;;
23119;SDS011;11729;50.836;4.330;2024-03-23T09:10:39;16.70;;;5.95;;
23119;SDS011;11729;50.836;4.330;2024-03-23T09:13:05;12.52;;;5.95;;
23119;SDS011;11729;50.836;4.330;2024-03-23T09:15:32;13.60;;;5.93;;
23119;SDS011;11729;50.836;4.330;2024-03-23T09:18:02;17.65;;;6.05;;
23119;SDS011;11729;50.836;4.330;2024-03-23T09:20:29;15.13;;;6.55;;
23119;SDS011;11729;50.836;4.330;2024-03-23T09:22:57;9.88;;;6.00;;
23119;SDS011;11729;50.836;4.330;2024-03-23T09:25:23;12.52;;;5.97;;
23119;SDS011;11729;50.836;4.330;2024-03-23T09:27:50;9.68;;;5.90;;
23119;SDS011;11729;50.836;4.330;2024-03-23T09:30:15;15.40;;;6.20;;
23119;SDS011;11729;50.836;4.330;2024-03-23T09:32:43;11.57;;;5.40;;
23119;SDS011;11729;50.836;4.330;2024-03-23T09:35:09;12.73;;;6.30;;
23119;SDS011;11729;50.836;4.330;2024-03-23T09:37:36;14.15;;;6.00;;
23119;SDS011;11729;50.836;4.330;2024-03-23T09:40:03;13.05;;;5.70;;
23119;SDS011;11729;50.836;4.330;2024-03-23T09:42:30;10.98;;;5.85;;
23119;SDS011;11729;50.836;4.330;2024-03-23T09:44:58;11.82;;;5.95;;
23119;SDS011;11729;50.836;4.330;2024-03-23T09:47:24;10.23;;;5.60;;
23119;SDS011;11729;50.836;4.330;2024-03-23T09:49:50;12.07;;;6.00;;
23119;SDS011;11729;50.836;4.330;2024-03-23T09:52:17;9.48;;;5.93;;
23119;SDS011;11729;50.836;4.330;2024-03-23T09:54:43;11.15;;;5.88;;
23119;SDS011;11729;50.836;4.330;2024-03-23T09:57:09;13.90;;;6.50;;
23119;SDS011;11729;50.836;4.330;2024-03-23T09:59:35;9.15;;;5.75;;
23119;SDS011;11729;50.836;4.330;2024-03-23T10:02:01;12.68;;;5.78;;
23119;SDS011;11729;50.836;4.330;2024-03-23T10:04:36;7.88;;;5.43;;
23119;SDS011;11729;50.836;4.330;2024-03-23T10:07:10;9.80;;;5.47;;
23119;SDS011;11729;50.836;4.330;2024-03-23T10:09:46;8.85;;;5.25;;
23119;SDS011;11729;50.836;4.330;2024-03-23T10:12:14;7.00;;;5.47;;
23119;SDS011;11729;50.836;4.330;2024-03-23T10:14:43;9.60;;;5.40;;
23119;SDS011;11729;50.836;4.330;2024-03-23T10:19:39;11.35;;;6.70;;
23119;SDS011;11729;50.836;4.330;2024-03-23T10:22:06;10.27;;;5.32;;
23119;SDS011;11729;50.836;4.330;2024-03-23T10:24:32;8.25;;;4.93;;
23119;SDS011;11729;50.836;4.330;2024-03-23T10:26:57;9.52;;;5.22;;
23119;SDS011;11729;50.836;4.330;2024-03-23T10:29:23;12.00;;;5.72;;
23119;SDS011;11729;50.836;4.330;2024-03-23T10:31:55;9.48;;;5.90;;
23119;SDS011;11729;50.836;4.330;2024-03-23T10:34:33;7.50;;;5.40;;
23119;SDS011;11729;50.836;4.330;2024-03-23T10:36:59;11.02;;;5.45;;
23119;SDS011;11729;50.836;4.330;2024-03-23T10:39:29;9.02;;;5.30;;
23119;SDS011;11729;50.836;4.330;2024-03-23T10:42:00;8.77;;;5.00;;
23119;SDS011;11729;50.836;4.330;2024-03-23T10:44:34;6.97;;;5.07;;
23119;SDS011;11729;50.836;4.330;2024-03-23T10:47:00;9.57;;;5.20;;
23119;SDS011;11729;50.836;4.330;2024-03-23T10:49:28;8.00;;;5.20;;
23119;SDS011;11729;50.836;4.330;2024-03-23T10:52:01;9.57;;;5.00;;
23119;SDS011;11729;50.836;4.330;2024-03-23T10:54:29;7.95;;;5.00;;
23119;SDS011;11729;50.836;4.330;2024-03-23T10:56:58;10.00;;;4.97;;
23119;SDS011;11729;50.836;4.330;2024-03-23T10:59:29;6.85;;;5.30;;
23119;SDS011;11729;50.836;4.330;2024-03-23T11:02:00;7.40;;;5.25;;
23119;SDS011;11729;50.836;4.330;2024-03-23T11:04:37;11.43;;;5.07;;
23119;SDS011;11729;50.836;4.330;2024-03-23T11:09:51;10.02;;;5.15;;
23119;SDS011;11729;50.836;4.330;2024-03-23T11:14:48;7.90;;;4.80;;
23119;SDS011;11729;50.836;4.330;2024-03-23T11:17:22;9.20;;;4.95;;
23119;SDS011;11729;50.836;4.330;2024-03-23T11:19:55;7.35;;;5.20;;
23119;SDS011;11729;50.836;4.330;2024-03-23T11:27:40;10.00;;;4.97;;
23119;SDS011;11729;50.836;4.330;2024-03-23T11:30:22;6.45;;;4.70;;
23119;SDS011;11729;50.836;4.330;2024-03-23T11:32:57;7.57;;;5.45;;
23119;SDS011;11729;50.836;4.330;2024-03-23T11:38:06;6.07;;;5.20;;
23119;SDS011;11729;50.836;4.330;2024-03-23T11:40:32;6.22;;;4.57;;
23119;SDS011;11729;50.836;4.330;2024-03-23T11:43:00;6.70;;;5.00;;
23119;SDS011;11729;50.836;4.330;2024-03-23T11:45:36;8.48;;;4.70;;
23119;SDS011;11729;50.836;4.330;2024-03-23T11:50:34;10.55;;;4.70;;
23119;SDS011;11729;50.836;4.330;2024-03-23T11:58:25;7.82;;;4.90;;
23119;SDS011;11729;50.836;4.330;2024-03-23T12:00:58;9.52;;;5.22;;
23119;SDS011;11729;50.836;4.330;2024-03-23T12:03:28;8.38;;;4.85;;
23119;SDS011;11729;50.836;4.330;2024-03-23T12:05:55;7.60;;;4.93;;
23119;SDS011;11729;50.836;4.330;2024-03-23T12:08:30;9.45;;;5.25;;
23119;SDS011;11729;50.836;4.330;2024-03-23T12:13:51;6.93;;;4.85;;
23119;SDS011;11729;50.836;4.330;2024-03-23T12:16:17;9.35;;;5.10;;
23119;SDS011;11729;50.836;4.330;2024-03-23T12:18:48;7.80;;;4.95;;
23119;SDS011;11729;50.836;4.330;2024-03-23T12:21:14;7.00;;;4.75;;
23119;SDS011;11729;50.836;4.330;2024-03-23T12:23:41;6.88;;;4.72;;
23119;SDS011;11729;50.836;4.330;2024-03-23T12:26:10;6.53;;;4.85;;
23119;SDS011;11729;50.836;4.330;2024-03-23T12:28:37;6.35;;;5.03;;
23119;SDS011;11729;50.836;4.330;2024-03-23T12:31:03;5.93;;;4.68;;
23119;SDS011;11729;50.836;4.330;2024-03-23T12:33:30;6.72;;;4.60;;
23119;SDS011;11729;50.836;4.330;2024-03-23T12:35:56;4.90;;;4.50;;
23119;SDS011;11729;50.836;4.330;2024-03-23T12:38:21;7.53;;;4.53;;
23119;SDS011;11729;50.836;4.330;2024-03-23T12:40:47;7.15;;;4.63;;
23119;SDS011;11729;50.836;4.330;2024-03-23T12:43:14;9.80;;;5.18;;
23119;SDS011;11729;50.836;4.330;2024-03-23T12:45:40;5.05;;;4.35;;
23119;SDS011;11729;50.836;4.330;2024-03-23T12:48:05;9.02;;;4.95;;
23119;SDS011;11729;50.836;4.330;2024-03-23T12:50:32;10.70;;;5.03;;
23119;SDS011;11729;50.836;4.330;2024-03-23T12:52:57;9.18;;;4.90;;
23119;SDS011;11729;50.836;4.330;2024-03-23T12:55:23;5.57;;;4.82;;
23119;SDS011;11729;50.836;4.330;2024-03-23T12:57:49;6.22;;;4.55;;
23119;SDS011;11729;50.836;4.330;2024-03-23T13:00:15;5.95;;;4.47;;
23119;SDS011;11729;50.836;4.330;2024-03-23T13:02:42;9.32;;;4.43;;
23119;SDS011;11729;50.836;4.330;2024-03-23T13:05:10;6.95;;;4.40;;
23119;SDS011;11729;50.836;4.330;2024-03-23T13:07:37;4.50;;;4.10;;
23119;SDS011;11729;50.836;4.330;2024-03-23T13:10:04;8.32;;;4.70;;
23119;SDS011;11729;50.836;4.330;2024-03-23T13:12:30;5.05;;;4.00;;
23119;SDS011;11729;50.836;4.330;2024-03-23T13:14:57;7.90;;;4.40;;
23119;SDS011;11729;50.836;4.330;2024-03-23T13:17:24;7.40;;;4.65;;
23119;SDS011;11729;50.836;4.330;2024-03-23T13:19:49;10.40;;;4.57;;
23119;SDS011;11729;50.836;4.330;2024-03-23T13:22:15;8.30;;;4.63;;
23119;SDS011;11729;50.836;4.330;2024-03-23T13:24:41;7.45;;;4.75;;
23119;SDS011;11729;50.836;4.330;2024-03-23T13:27:07;6.90;;;4.68;;
23119;SDS011;11729;50.836;4.330;2024-03-23T13:29:34;7.32;;;4.90;;
23119;SDS011;11729;50.836;4.330;2024-03-23T13:32:00;6.15;;;4.60;;
23119;SDS011;11729;50.836;4.330;2024-03-23T13:34:26;5.93;;;5.25;;
23119;SDS011;11729;50.836;4.330;2024-03-23T13:36:54;9.00;;;4.80;;
23119;SDS011;11729;50.836;4.330;2024-03-23T13:39:21;5.20;;;4.20;;
23119;SDS011;11729;50.836;4.330;2024-03-23T13:41:47;6.97;;;4.40;;
23119;SDS011;11729;50.836;4.330;2024-03-23T13:44:13;7.68;;;4.70;;
23119;SDS011;11729;50.836;4.330;2024-03-23T13:46:42;5.05;;;4.22;;
23119;SDS011;11729;50.836;4.330;2024-03-23T13:49:14;6.47;;;4.13;;
23119;SDS011;11729;50.836;4.330;2024-03-23T13:51:57;7.95;;;4.57;;
23119;SDS011;11729;50.836;4.330;2024-03-23T13:54:24;7.90;;;4.85;;
23119;SDS011;11729;50.836;4.330;2024-03-23T13:56:54;7.85;;;4.65;;
23119;SDS011;11729;50.836;4.330;2024-03-23T13:59:21;6.07;;;4.65;;
23119;SDS011;11729;50.836;4.330;2024-03-23T14:01:48;8.90;;;4.67;;
23119;SDS011;11729;50.836;4.330;2024-03-23T14:04:14;6.57;;;4.85;;
23119;SDS011;11729;50.836;4.330;2024-03-23T14:06:41;8.73;;;4.40;;
23119;SDS011;11729;50.836;4.330;2024-03-23T14:09:14;8.43;;;4.88;;
23119;SDS011;11729;50.836;4.330;2024-03-23T14:11:43;8.18;;;4.82;;
23119;SDS011;11729;50.836;4.330;2024-03-23T14:14:09;9.48;;;4.78;;
23119;SDS011;11729;50.836;4.330;2024-03-23T14:16:34;7.57;;;4.60;;
23119;SDS011;11729;50.836;4.330;2024-03-23T14:19:00;6.38;;;4.28;;
23119;SDS011;11729;50.836;4.330;2024-03-23T14:21:26;6.30;;;4.47;;
23119;SDS011;11729;50.836;4.330;2024-03-23T14:23:52;7.47;;;4.45;;
23119;SDS011;11729;50.836;4.330;2024-03-23T14:26:18;7.97;;;4.82;;
23119;SDS011;11729;50.836;4.330;2024-03-23T14:28:45;11.07;;;5.22;;
23119;SDS011;11729;50.836;4.330;2024-03-23T14:31:11;11.60;;;5.43;;
23119;SDS011;11729;50.836;4.330;2024-03-23T14:33:38;7.43;;;5.10;;
23119;SDS011;11729;50.836;4.330;2024-03-23T14:36:10;9.77;;;5.05;;
23119;SDS011;11729;50.836;4.330;2024-03-23T14:38:40;9.30;;;5.30;;
23119;SDS011;11729;50.836;4.330;2024-03-23T14:41:06;5.97;;;4.90;;
23119;SDS011;11729;50.836;4.330;2024-03-23T14:43:31;5.82;;;4.95;;
23119;SDS011;11729;50.836;4.330;2024-03-23T14:46:13;11.13;;;5.72;;
23119;SDS011;11729;50.836;4.330;2024-03-23T14:48:41;9.02;;;5.15;;
23119;SDS011;11729;50.836;4.330;2024-03-23T14:51:08;10.50;;;5.32;;
23119;SDS011;11729;50.836;4.330;2024-03-23T14:53:35;11.27;;;4.85;;
23119;SDS011;11729;50.836;4.330;2024-03-23T14:58:28;7.88;;;5.43;;
23119;SDS011;11729;50.836;4.330;2024-03-23T15:03:27;8.43;;;5.00;;
23119;SDS011;11729;50.836;4.330;2024-03-23T15:05:57;11.70;;;5.10;;
23119;SDS011;11729;50.836;4.330;2024-03-23T15:08:24;10.00;;;5.00;;
23119;SDS011;11729;50.836;4.330;2024-03-23T15:10:50;8.77;;;5.50;;
23119;SDS011;11729;50.836;4.330;2024-03-23T15:13:16;12.68;;;5.10;;
23119;SDS011;11729;50.836;4.330;2024-03-23T15:15:42;8.15;;;5.32;;
23119;SDS011;11729;50.836;4.330;2024-03-23T15:18:12;11.43;;;5.20;;
23119;SDS011;11729;50.836;4.330;2024-03-23T15:20:40;8.15;;;4.93;;
23119;SDS011;11729;50.836;4.330;2024-03-23T15:23:08;11.18;;;5.40;;
23119;SDS011;11729;50.836;4.330;2024-03-23T15:25:34;12.07;;;6.75;;
23119;SDS011;11729;50.836;4.330;2024-03-23T15:28:00;11.07;;;6.15;;
23119;SDS011;11729;50.836;4.330;2024-03-23T15:30:28;9.98;;;5.75;;
23119;SDS011;11729;50.836;4.330;2024-03-23T15:32:54;8.23;;;4.80;;
23119;SDS011;11729;50.836;4.330;2024-03-23T15:35:20;12.82;;;5.50;;
23119;SDS011;11729;50.836;4.330;2024-03-23T15:37:48;7.85;;;5.03;;
23119;SDS011;11729;50.836;4.330;2024-03-23T15:40:14;12.73;;;5.45;;
23119;SDS011;11729;50.836;4.330;2024-03-23T15:42:40;7.70;;;5.43;;
23119;SDS011;11729;50.836;4.330;2024-03-23T15:45:06;7.70;;;5.00;;
23119;SDS011;11729;50.836;4.330;2024-03-23T15:47:33;11.68;;;5.43;;
23119;SDS011;11729;50.836;4.330;2024-03-23T15:50:00;10.52;;;5.80;;
23119;SDS011;11729;50.836;4.330;2024-03-23T15:52:25;8.32;;;5.20;;
23119;SDS011;11729;50.836;4.330;2024-03-23T15:54:51;10.32;;;5.20;;
23119;SDS011;11729;50.836;4.330;2024-03-23T15:57:17;13.35;;;5.45;;